sensor_id;sensor_type;location;lat;lon;timestamp;P1;durP1;ratioP1;P2;durP2;ratioP2
4428;SDS011;2227;47.810;8.810;2023-03-22T04:47:01;748.80;;;674.33;;
4428;SDS011;2227;47.810;8.810;2023-03-22T04:49:28;744.15;;;669.13;;
4428;SDS011;2227;47.810;8.810;2023-03-22T04:51:56;750.55;;;675.88;;
4428;SDS011;2227;47.810;8.810;2023-03-22T04:54:23;754.55;;;679.35;;
4428;SDS011;2227;47.810;8.810;2023-03-22T04:56:50;746.42;;;671.45;;
4428;SDS011;2227;47.810;8.810;2023-03-22T04:59:17;741.25;;;666.25;;
4428;SDS011;2227;47.810;8.810;2023-03-22T05:01:46;744.58;;;669.08;;
4428;SDS011;2227;47.810;8.810;2023-03-22T05:04:13;740.78;;;665.13;;
4428;SDS011;2227;47.810;8.810;2023-03-22T05:06:41;744.95;;;669.55;;
4428;SDS011;2227;47.810;8.810;2023-03-22T05:09:08;736.47;;;661.08;;
4428;SDS011;2227;47.810;8.810;2023-03-22T05:11:35;735.17;;;659.90;;
4428;SDS011;2227;47.810;8.810;2023-03-22T05:14:02;731.80;;;656.42;;
4428;SDS011;2227;47.810;8.810;2023-03-22T05:16:29;731.13;;;655.63;;
4428;SDS011;2227;47.810;8.810;2023-03-22T05:18:56;728.40;;;652.80;;
4428;SDS011;2227;47.810;8.810;2023-03-22T05:21:23;730.55;;;655.05;;
4428;SDS011;2227;47.810;8.810;2023-03-22T05:23:57;732.38;;;656.78;;
4428;SDS011;2227;47.810;8.810;2023-03-22T05:26:24;736.05;;;660.33;;
4428;SDS011;2227;47.810;8.810;2023-03-22T05:28:52;724.17;;;648.72;;
4428;SDS011;2227;47.810;8.810;2023-03-22T05:31:20;728.73;;;653.03;;
4428;SDS011;2227;47.810;8.810;2023-03-22T05:33:47;723.00;;;647.13;;
4428;SDS011;2227;47.810;8.810;2023-03-22T05:36:19;724.67;;;649.08;;
4428;SDS011;2227;47.810;8.810;2023-03-22T05:38:48;727.97;;;652.28;;
4428;SDS011;2227;47.810;8.810;2023-03-22T05:41:15;719.47;;;643.78;;
4428;SDS011;2227;47.810;8.810;2023-03-22T05:43:41;721.10;;;645.30;;
4428;SDS011;2227;47.810;8.810;2023-03-22T05:46:09;721.78;;;646.03;;
4428;SDS011;2227;47.810;8.810;2023-03-22T05:48:37;726.10;;;649.90;;
4428;SDS011;2227;47.810;8.810;2023-03-22T05:51:06;721.67;;;645.28;;
4428;SDS011;2227;47.810;8.810;2023-03-22T05:53:34;718.20;;;641.80;;
4428;SDS011;2227;47.810;8.810;2023-03-22T05:56:01;720.55;;;644.15;;
4428;SDS011;2227;47.810;8.810;2023-03-22T05:58:29;718.28;;;641.90;;
4428;SDS011;2227;47.810;8.810;2023-03-22T06:00:57;719.55;;;643.15;;
4428;SDS011;2227;47.810;8.810;2023-03-22T06:03:29;725.15;;;648.88;;
4428;SDS011;2227;47.810;8.810;2023-03-22T06:05:56;721.25;;;644.75;;
4428;SDS011;2227;47.810;8.810;2023-03-22T06:08:23;729.38;;;652.97;;
4428;SDS011;2227;47.810;8.810;2023-03-22T06:10:51;723.30;;;647.30;;
4428;SDS011;2227;47.810;8.810;2023-03-22T06:13:18;735.63;;;659.72;;
4428;SDS011;2227;47.810;8.810;2023-03-22T06:15:46;730.95;;;655.08;;
4428;SDS011;2227;47.810;8.810;2023-03-22T06:18:13;738.03;;;662.15;;
4428;SDS011;2227;47.810;8.810;2023-03-22T06:20:39;741.40;;;665.58;;
4428;SDS011;2227;47.810;8.810;2023-03-22T06:23:07;746.53;;;670.42;;
4428;SDS011;2227;47.810;8.810;2023-03-22T06:25:33;747.55;;;671.95;;
4428;SDS011;2227;47.810;8.810;2023-03-22T06:28:01;747.20;;;671.45;;
4428;SDS011;2227;47.810;8.810;2023-03-22T06:30:28;753.35;;;677.65;;
4428;SDS011;2227;47.810;8.810;2023-03-22T06:32:54;751.47;;;676.38;;
4428;SDS011;2227;47.810;8.810;2023-03-22T06:35:26;751.85;;;676.63;;
4428;SDS011;2227;47.810;8.810;2023-03-22T06:37:52;748.38;;;673.53;;
4428;SDS011;2227;47.810;8.810;2023-03-22T06:40:19;755.72;;;681.08;;
4428;SDS011;2227;47.810;8.810;2023-03-22T06:42:46;751.22;;;676.67;;
4428;SDS011;2227;47.810;8.810;2023-03-22T06:45:13;762.03;;;687.43;;
4428;SDS011;2227;47.810;8.810;2023-03-22T06:47:42;765.40;;;691.10;;
4428;SDS011;2227;47.810;8.810;2023-03-22T06:50:09;768.13;;;694.03;;
4428;SDS011;2227;47.810;8.810;2023-03-22T06:52:36;769.60;;;695.03;;
4428;SDS011;2227;47.810;8.810;2023-03-22T06:55:03;783.67;;;708.72;;
4428;SDS011;2227;47.810;8.810;2023-03-22T06:57:30;784.92;;;709.72;;
4428;SDS011;2227;47.810;8.810;2023-03-22T06:59:57;791.20;;;715.92;;
4428;SDS011;2227;47.810;8.810;2023-03-22T07:02:24;794.15;;;719.17;;
4428;SDS011;2227;47.810;8.810;2023-03-22T07:04:50;808.80;;;733.45;;
4428;SDS011;2227;47.810;8.810;2023-03-22T07:07:17;817.03;;;742.53;;
4428;SDS011;2227;47.810;8.810;2023-03-22T07:09:44;824.38;;;749.67;;
4428;SDS011;2227;47.810;8.810;2023-03-22T07:12:11;816.08;;;741.97;;
4428;SDS011;2227;47.810;8.810;2023-03-22T07:14:38;826.83;;;752.55;;
4428;SDS011;2227;47.810;8.810;2023-03-22T07:17:04;838.55;;;763.90;;
4428;SDS011;2227;47.810;8.810;2023-03-22T07:19:31;842.65;;;768.33;;
4428;SDS011;2227;47.810;8.810;2023-03-22T07:21:58;846.63;;;771.78;;
4428;SDS011;2227;47.810;8.810;2023-03-22T07:24:25;843.40;;;770.67;;
4428;SDS011;2227;47.810;8.810;2023-03-22T07:26:52;850.40;;;777.97;;
4428;SDS011;2227;47.810;8.810;2023-03-22T07:29:19;865.47;;;793.28;;
4428;SDS011;2227;47.810;8.810;2023-03-22T07:31:45;867.97;;;795.90;;
4428;SDS011;2227;47.810;8.810;2023-03-22T07:34:12;880.08;;;807.97;;
4428;SDS011;2227;47.810;8.810;2023-03-22T07:36:39;883.60;;;812.00;;
4428;SDS011;2227;47.810;8.810;2023-03-22T07:39:06;885.75;;;814.30;;
4428;SDS011;2227;47.810;8.810;2023-03-22T07:41:32;893.78;;;822.25;;
4428;SDS011;2227;47.810;8.810;2023-03-22T07:43:59;892.92;;;822.03;;
4428;SDS011;2227;47.810;8.810;2023-03-22T07:46:42;903.03;;;832.00;;
4428;SDS011;2227;47.810;8.810;2023-03-22T07:49:09;925.17;;;853.65;;
4428;SDS011;2227;47.810;8.810;2023-03-22T07:51:36;929.95;;;858.25;;
4428;SDS011;2227;47.810;8.810;2023-03-22T07:54:03;941.47;;;869.35;;
4428;SDS011;2227;47.810;8.810;2023-03-22T07:56:32;937.22;;;865.28;;
4428;SDS011;2227;47.810;8.810;2023-03-22T07:58:59;951.40;;;879.28;;
4428;SDS011;2227;47.810;8.810;2023-03-22T08:01:26;955.93;;;883.83;;
4428;SDS011;2227;47.810;8.810;2023-03-22T08:03:53;968.50;;;896.37;;
4428;SDS011;2227;47.810;8.810;2023-03-22T08:06:19;974.45;;;901.33;;
4428;SDS011;2227;47.810;8.810;2023-03-22T08:08:46;974.42;;;902.30;;
4428;SDS011;2227;47.810;8.810;2023-03-22T08:11:13;995.20;;;923.53;;
4428;SDS011;2227;47.810;8.810;2023-03-22T08:13:40;1009.33;;;938.47;;
4428;SDS011;2227;47.810;8.810;2023-03-22T08:16:06;1030.03;;;958.72;;
4428;SDS011;2227;47.810;8.810;2023-03-22T08:18:33;1065.43;;;993.00;;
4428;SDS011;2227;47.810;8.810;2023-03-22T08:21:00;1084.68;;;999.90;;
4428;SDS011;2227;47.810;8.810;2023-03-22T08:23:27;1100.13;;;999.90;;
4428;SDS011;2227;47.810;8.810;2023-03-22T08:26:07;1098.75;;;999.90;;
4428;SDS011;2227;47.810;8.810;2023-03-22T08:28:34;1104.60;;;999.90;;
4428;SDS011;2227;47.810;8.810;2023-03-22T08:31:00;1114.82;;;999.90;;
4428;SDS011;2227;47.810;8.810;2023-03-22T08:33:34;1126.53;;;999.90;;
4428;SDS011;2227;47.810;8.810;2023-03-22T08:36:08;1127.05;;;999.90;;
4428;SDS011;2227;47.810;8.810;2023-03-22T08:38:37;1124.70;;;999.90;;
4428;SDS011;2227;47.810;8.810;2023-03-22T08:41:04;1116.85;;;999.90;;
4428;SDS011;2227;47.810;8.810;2023-03-22T08:43:31;1117.32;;;999.90;;
4428;SDS011;2227;47.810;8.810;2023-03-22T08:45:57;1143.10;;;999.90;;
4428;SDS011;2227;47.810;8.810;2023-03-22T08:48:24;1150.20;;;999.90;;
4428;SDS011;2227;47.810;8.810;2023-03-22T08:50:54;1180.37;;;999.90;;
4428;SDS011;2227;47.810;8.810;2023-03-22T08:53:21;1173.30;;;999.90;;
4428;SDS011;2227;47.810;8.810;2023-03-22T08:55:48;1177.37;;;999.90;;
4428;SDS011;2227;47.810;8.810;2023-03-22T08:58:15;1172.97;;;999.90;;
4428;SDS011;2227;47.810;8.810;2023-03-22T09:00:44;1177.45;;;999.90;;
4428;SDS011;2227;47.810;8.810;2023-03-22T09:03:14;1162.18;;;999.90;;
4428;SDS011;2227;47.810;8.810;2023-03-22T09:05:41;1158.60;;;999.90;;
4428;SDS011;2227;47.810;8.810;2023-03-22T09:08:08;1152.90;;;999.90;;
4428;SDS011;2227;47.810;8.810;2023-03-22T09:10:44;1149.97;;;999.90;;
4428;SDS011;2227;47.810;8.810;2023-03-22T09:13:17;1169.53;;;999.90;;
4428;SDS011;2227;47.810;8.810;2023-03-22T09:15:44;1170.68;;;999.90;;
4428;SDS011;2227;47.810;8.810;2023-03-22T09:18:12;1180.60;;;999.90;;
4428;SDS011;2227;47.810;8.810;2023-03-22T09:20:39;1181.82;;;999.90;;
4428;SDS011;2227;47.810;8.810;2023-03-22T09:23:06;1170.37;;;999.90;;
4428;SDS011;2227;47.810;8.810;2023-03-22T09:25:33;1176.43;;;999.90;;
4428;SDS011;2227;47.810;8.810;2023-03-22T09:28:00;1175.05;;;999.90;;
4428;SDS011;2227;47.810;8.810;2023-03-22T09:30:27;1176.80;;;999.90;;
4428;SDS011;2227;47.810;8.810;2023-03-22T09:32:54;1175.70;;;999.90;;
4428;SDS011;2227;47.810;8.810;2023-03-22T09:35:21;1166.20;;;999.90;;
4428;SDS011;2227;47.810;8.810;2023-03-22T09:37:48;1155.95;;;999.90;;
4428;SDS011;2227;47.810;8.810;2023-03-22T09:40:18;1175.20;;;999.90;;
4428;SDS011;2227;47.810;8.810;2023-03-22T09:42:47;1181.50;;;999.90;;
4428;SDS011;2227;47.810;8.810;2023-03-22T09:45:18;1187.20;;;999.90;;
4428;SDS011;2227;47.810;8.810;2023-03-22T09:47:51;1201.28;;;999.90;;
4428;SDS011;2227;47.810;8.810;2023-03-22T09:50:22;1204.63;;;999.90;;
4428;SDS011;2227;47.810;8.810;2023-03-22T09:52:51;1206.00;;;999.90;;
4428;SDS011;2227;47.810;8.810;2023-03-22T09:58:29;1204.03;;;999.90;;
4428;SDS011;2227;47.810;8.810;2023-03-22T10:01:05;1226.17;;;999.90;;
4428;SDS011;2227;47.810;8.810;2023-03-22T10:07:00;1225.28;;;999.90;;
4428;SDS011;2227;47.810;8.810;2023-03-22T10:12:34;1239.57;;;999.90;;
4428;SDS011;2227;47.810;8.810;2023-03-22T10:15:27;1238.78;;;999.90;;
4428;SDS011;2227;47.810;8.810;2023-03-22T10:18:05;1236.55;;;999.90;;
4428;SDS011;2227;47.810;8.810;2023-03-22T10:23:15;1217.50;;;999.90;;
4428;SDS011;2227;47.810;8.810;2023-03-22T10:25:48;1214.28;;;999.90;;
4428;SDS011;2227;47.810;8.810;2023-03-22T10:28:20;1209.80;;;999.90;;
4428;SDS011;2227;47.810;8.810;2023-03-22T10:30:51;1207.97;;;999.90;;
4428;SDS011;2227;47.810;8.810;2023-03-22T10:33:27;1202.45;;;999.90;;
4428;SDS011;2227;47.810;8.810;2023-03-22T10:36:05;1203.95;;;999.90;;
4428;SDS011;2227;47.810;8.810;2023-03-22T10:38:39;1210.22;;;999.90;;
4428;SDS011;2227;47.810;8.810;2023-03-22T10:41:12;1222.47;;;999.90;;
4428;SDS011;2227;47.810;8.810;2023-03-22T10:43:43;1224.85;;;999.90;;
4428;SDS011;2227;47.810;8.810;2023-03-22T10:46:20;1223.63;;;999.90;;
4428;SDS011;2227;47.810;8.810;2023-03-22T10:48:49;1215.00;;;999.90;;
4428;SDS011;2227;47.810;8.810;2023-03-22T10:51:25;1204.95;;;999.90;;
4428;SDS011;2227;47.810;8.810;2023-03-22T10:53:57;1218.07;;;999.90;;
4428;SDS011;2227;47.810;8.810;2023-03-22T10:56:26;1207.85;;;999.90;;
4428;SDS011;2227;47.810;8.810;2023-03-22T10:58:53;1203.78;;;999.90;;
4428;SDS011;2227;47.810;8.810;2023-03-22T11:01:32;1201.38;;;999.90;;
4428;SDS011;2227;47.810;8.810;2023-03-22T11:04:08;1199.32;;;999.90;;
4428;SDS011;2227;47.810;8.810;2023-03-22T11:06:39;1200.40;;;999.90;;
4428;SDS011;2227;47.810;8.810;2023-03-22T11:09:21;1196.90;;;999.90;;
4428;SDS011;2227;47.810;8.810;2023-03-22T11:11:50;1196.18;;;999.90;;
4428;SDS011;2227;47.810;8.810;2023-03-22T11:14:33;1204.65;;;999.90;;
4428;SDS011;2227;47.810;8.810;2023-03-22T11:19:41;1196.88;;;999.90;;
4428;SDS011;2227;47.810;8.810;2023-03-22T11:22:33;1193.63;;;999.90;;
4428;SDS011;2227;47.810;8.810;2023-03-22T11:25:25;1183.53;;;999.90;;
4428;SDS011;2227;47.810;8.810;2023-03-22T11:27:56;1187.25;;;999.90;;
4428;SDS011;2227;47.810;8.810;2023-03-22T11:30:32;1183.63;;;999.90;;
4428;SDS011;2227;47.810;8.810;2023-03-22T11:33:16;1175.23;;;999.90;;
4428;SDS011;2227;47.810;8.810;2023-03-22T11:35:46;1161.60;;;999.90;;
4428;SDS011;2227;47.810;8.810;2023-03-22T11:41:12;1160.80;;;999.90;;
4428;SDS011;2227;47.810;8.810;2023-03-22T11:43:50;1169.82;;;999.90;;
4428;SDS011;2227;47.810;8.810;2023-03-22T11:46:20;1157.95;;;999.90;;
4428;SDS011;2227;47.810;8.810;2023-03-22T11:48:49;1165.43;;;999.90;;
4428;SDS011;2227;47.810;8.810;2023-03-22T11:51:26;1175.87;;;999.90;;
4428;SDS011;2227;47.810;8.810;2023-03-22T11:53:57;1181.53;;;999.90;;
4428;SDS011;2227;47.810;8.810;2023-03-22T11:56:38;1172.63;;;999.90;;
4428;SDS011;2227;47.810;8.810;2023-03-22T11:59:11;1182.00;;;999.90;;
4428;SDS011;2227;47.810;8.810;2023-03-22T12:01:50;1182.77;;;999.90;;
4428;SDS011;2227;47.810;8.810;2023-03-22T12:04:27;1173.47;;;999.90;;
4428;SDS011;2227;47.810;8.810;2023-03-22T12:06:58;1179.55;;;999.90;;
4428;SDS011;2227;47.810;8.810;2023-03-22T12:09:37;1181.53;;;999.90;;
4428;SDS011;2227;47.810;8.810;2023-03-22T12:12:21;1186.63;;;999.90;;
4428;SDS011;2227;47.810;8.810;2023-03-22T12:17:42;1177.03;;;999.90;;
4428;SDS011;2227;47.810;8.810;2023-03-22T12:20:29;1163.35;;;999.90;;
4428;SDS011;2227;47.810;8.810;2023-03-22T12:23:18;1155.35;;;999.90;;
4428;SDS011;2227;47.810;8.810;2023-03-22T12:26:33;1153.93;;;999.90;;
4428;SDS011;2227;47.810;8.810;2023-03-22T12:31:47;1155.30;;;999.90;;
4428;SDS011;2227;47.810;8.810;2023-03-22T12:34:36;1173.22;;;999.90;;
4428;SDS011;2227;47.810;8.810;2023-03-22T12:37:07;1158.20;;;999.90;;
4428;SDS011;2227;47.810;8.810;2023-03-22T12:39:42;1162.43;;;999.90;;
4428;SDS011;2227;47.810;8.810;2023-03-22T12:45:12;1149.57;;;999.90;;
4428;SDS011;2227;47.810;8.810;2023-03-22T12:48:16;1147.82;;;999.90;;
4428;SDS011;2227;47.810;8.810;2023-03-22T12:51:07;1153.13;;;999.90;;
4428;SDS011;2227;47.810;8.810;2023-03-22T12:53:41;1149.32;;;999.90;;
4428;SDS011;2227;47.810;8.810;2023-03-22T12:56:15;1142.40;;;999.90;;
4428;SDS011;2227;47.810;8.810;2023-03-22T12:58:45;1147.63;;;999.90;;
4428;SDS011;2227;47.810;8.810;2023-03-22T13:01:29;1141.60;;;999.90;;
4428;SDS011;2227;47.810;8.810;2023-03-22T13:04:24;1148.05;;;999.90;;
4428;SDS011;2227;47.810;8.810;2023-03-22T13:09:19;1168.05;;;999.90;;
4428;SDS011;2227;47.810;8.810;2023-03-22T13:30:48;1151.93;;;999.90;;
4428;SDS011;2227;47.810;8.810;2023-03-22T13:33:18;1149.40;;;999.90;;
4428;SDS011;2227;47.810;8.810;2023-03-22T13:35:50;1149.80;;;999.90;;
4428;SDS011;2227;47.810;8.810;2023-03-22T13:41:21;1143.83;;;999.90;;
4428;SDS011;2227;47.810;8.810;2023-03-22T13:43:55;1145.82;;;999.90;;
4428;SDS011;2227;47.810;8.810;2023-03-22T13:48:52;1148.72;;;999.90;;
4428;SDS011;2227;47.810;8.810;2023-03-22T13:51:43;1157.55;;;999.90;;
4428;SDS011;2227;47.810;8.810;2023-03-22T14:04:46;1170.00;;;999.90;;
4428;SDS011;2227;47.810;8.810;2023-03-22T14:07:28;1172.60;;;999.90;;
4428;SDS011;2227;47.810;8.810;2023-03-22T14:10:01;1162.90;;;999.90;;
4428;SDS011;2227;47.810;8.810;2023-03-22T14:12:47;1169.63;;;999.90;;
4428;SDS011;2227;47.810;8.810;2023-03-22T14:18:48;1170.47;;;999.90;;
4428;SDS011;2227;47.810;8.810;2023-03-22T14:21:17;1172.07;;;999.90;;
4428;SDS011;2227;47.810;8.810;2023-03-22T14:23:50;1165.25;;;999.90;;
4428;SDS011;2227;47.810;8.810;2023-03-22T14:28:54;1158.00;;;999.90;;
4428;SDS011;2227;47.810;8.810;2023-03-22T14:31:41;1148.22;;;999.90;;
4428;SDS011;2227;47.810;8.810;2023-03-22T14:34:13;1145.97;;;999.90;;
4428;SDS011;2227;47.810;8.810;2023-03-22T14:36:43;1148.47;;;999.90;;
4428;SDS011;2227;47.810;8.810;2023-03-22T14:39:26;1145.60;;;999.90;;
4428;SDS011;2227;47.810;8.810;2023-03-22T14:42:03;1143.22;;;999.90;;
4428;SDS011;2227;47.810;8.810;2023-03-22T14:44:34;1145.03;;;999.90;;
4428;SDS011;2227;47.810;8.810;2023-03-22T14:47:15;1140.53;;;999.90;;
4428;SDS011;2227;47.810;8.810;2023-03-22T14:49:50;1142.73;;;999.90;;
4428;SDS011;2227;47.810;8.810;2023-03-22T14:52:23;1146.90;;;999.90;;
4428;SDS011;2227;47.810;8.810;2023-03-22T14:54:53;1147.87;;;999.90;;
4428;SDS011;2227;47.810;8.810;2023-03-22T14:57:24;1147.50;;;999.90;;
4428;SDS011;2227;47.810;8.810;2023-03-22T15:00:02;1149.70;;;999.90;;
4428;SDS011;2227;47.810;8.810;2023-03-22T15:02:36;1151.97;;;999.90;;
4428;SDS011;2227;47.810;8.810;2023-03-22T15:05:05;1149.13;;;999.90;;
4428;SDS011;2227;47.810;8.810;2023-03-22T15:07:42;1156.17;;;999.90;;
4428;SDS011;2227;47.810;8.810;2023-03-22T15:10:28;1174.47;;;999.90;;
4428;SDS011;2227;47.810;8.810;2023-03-22T15:12:54;1172.25;;;999.90;;
4428;SDS011;2227;47.810;8.810;2023-03-22T15:15:24;1149.60;;;999.90;;
4428;SDS011;2227;47.810;8.810;2023-03-22T15:17:54;1145.17;;;999.90;;
4428;SDS011;2227;47.810;8.810;2023-03-22T15:20:22;1147.43;;;999.90;;
4428;SDS011;2227;47.810;8.810;2023-03-22T15:22:52;1145.40;;;999.90;;
4428;SDS011;2227;47.810;8.810;2023-03-22T15:25:19;1143.43;;;999.90;;
4428;SDS011;2227;47.810;8.810;2023-03-22T15:27:57;1141.88;;;999.90;;
4428;SDS011;2227;47.810;8.810;2023-03-22T15:30:24;1145.53;;;999.90;;
4428;SDS011;2227;47.810;8.810;2023-03-22T15:32:50;1143.50;;;999.90;;
4428;SDS011;2227;47.810;8.810;2023-03-22T15:35:16;1144.20;;;999.90;;
4428;SDS011;2227;47.810;8.810;2023-03-22T15:37:51;1144.18;;;999.90;;
4428;SDS011;2227;47.810;8.810;2023-03-22T15:41:01;1142.90;;;999.90;;
4428;SDS011;2227;47.810;8.810;2023-03-22T15:49:15;1141.05;;;999.90;;
4428;SDS011;2227;47.810;8.810;2023-03-22T15:51:38;1132.67;;;999.90;;
4428;SDS011;2227;47.810;8.810;2023-03-22T15:54:20;1132.00;;;999.90;;
4428;SDS011;2227;47.810;8.810;2023-03-22T15:56:52;1134.40;;;999.90;;
4428;SDS011;2227;47.810;8.810;2023-03-22T15:59:27;1133.53;;;999.90;;
4428;SDS011;2227;47.810;8.810;2023-03-22T16:01:58;1126.38;;;999.90;;
4428;SDS011;2227;47.810;8.810;2023-03-22T16:04:32;1132.55;;;999.90;;
4428;SDS011;2227;47.810;8.810;2023-03-22T16:06:59;1126.53;;;999.90;;
4428;SDS011;2227;47.810;8.810;2023-03-22T16:09:25;1115.35;;;999.90;;
4428;SDS011;2227;47.810;8.810;2023-03-22T16:11:52;1116.53;;;999.90;;
4428;SDS011;2227;47.810;8.810;2023-03-22T16:14:18;1122.70;;;999.90;;
4428;SDS011;2227;47.810;8.810;2023-03-22T16:16:44;1116.60;;;999.90;;
4428;SDS011;2227;47.810;8.810;2023-03-22T16:19:11;1113.68;;;999.90;;
4428;SDS011;2227;47.810;8.810;2023-03-22T16:21:37;1117.78;;;999.90;;
4428;SDS011;2227;47.810;8.810;2023-03-22T16:24:04;1120.85;;;999.90;;
4428;SDS011;2227;47.810;8.810;2023-03-22T16:26:30;1116.45;;;999.90;;
4428;SDS011;2227;47.810;8.810;2023-03-22T16:28:56;1111.93;;;999.90;;
4428;SDS011;2227;47.810;8.810;2023-03-22T16:31:22;1110.50;;;999.90;;
4428;SDS011;2227;47.810;8.810;2023-03-22T16:33:50;1111.50;;;999.90;;
4428;SDS011;2227;47.810;8.810;2023-03-22T16:36:18;1112.68;;;999.90;;
4428;SDS011;2227;47.810;8.810;2023-03-22T16:38:45;1116.97;;;999.90;;
4428;SDS011;2227;47.810;8.810;2023-03-22T16:41:24;1109.28;;;999.90;;
4428;SDS011;2227;47.810;8.810;2023-03-22T16:43:53;1111.25;;;999.90;;
4428;SDS011;2227;47.810;8.810;2023-03-22T16:46:21;1105.32;;;999.90;;
4428;SDS011;2227;47.810;8.810;2023-03-22T16:48:47;1103.78;;;999.90;;
4428;SDS011;2227;47.810;8.810;2023-03-22T16:51:33;1102.55;;;999.90;;
4428;SDS011;2227;47.810;8.810;2023-03-22T16:54:00;1091.47;;;999.90;;
4428;SDS011;2227;47.810;8.810;2023-03-22T16:56:26;1087.03;;;999.90;;
4428;SDS011;2227;47.810;8.810;2023-03-22T16:58:54;1097.38;;;999.90;;
4428;SDS011;2227;47.810;8.810;2023-03-22T17:01:20;1087.63;;;999.90;;
4428;SDS011;2227;47.810;8.810;2023-03-22T17:03:47;1091.65;;;999.90;;
4428;SDS011;2227;47.810;8.810;2023-03-22T17:06:15;1083.05;;;999.90;;
4428;SDS011;2227;47.810;8.810;2023-03-22T17:08:43;1073.13;;;999.17;;
4428;SDS011;2227;47.810;8.810;2023-03-22T17:11:20;1077.20;;;999.90;;
4428;SDS011;2227;47.810;8.810;2023-03-22T17:13:48;1069.43;;;995.13;;
4428;SDS011;2227;47.810;8.810;2023-03-22T17:16:15;1072.55;;;997.85;;
4428;SDS011;2227;47.810;8.810;2023-03-22T17:18:40;1069.37;;;994.77;;
4428;SDS011;2227;47.810;8.810;2023-03-22T17:21:08;1061.37;;;986.67;;
4428;SDS011;2227;47.810;8.810;2023-03-22T17:23:36;1061.47;;;987.13;;
4428;SDS011;2227;47.810;8.810;2023-03-22T17:26:02;1057.80;;;983.08;;
4428;SDS011;2227;47.810;8.810;2023-03-22T17:28:28;1047.70;;;972.80;;
4428;SDS011;2227;47.810;8.810;2023-03-22T17:30:57;1040.60;;;965.97;;
4428;SDS011;2227;47.810;8.810;2023-03-22T17:33:25;1034.73;;;959.70;;
4428;SDS011;2227;47.810;8.810;2023-03-22T17:35:51;1038.25;;;962.53;;
4428;SDS011;2227;47.810;8.810;2023-03-22T17:38:16;1036.13;;;960.05;;
4428;SDS011;2227;47.810;8.810;2023-03-22T17:40:42;1032.88;;;957.17;;
4428;SDS011;2227;47.810;8.810;2023-03-22T17:43:08;1023.58;;;948.08;;
4428;SDS011;2227;47.810;8.810;2023-03-22T17:45:34;1013.72;;;937.85;;
4428;SDS011;2227;47.810;8.810;2023-03-22T17:48:01;1016.25;;;940.45;;
4428;SDS011;2227;47.810;8.810;2023-03-22T17:50:29;1007.13;;;931.50;;
4428;SDS011;2227;47.810;8.810;2023-03-22T17:53:00;1018.72;;;942.13;;
4428;SDS011;2227;47.810;8.810;2023-03-22T17:55:28;1007.53;;;931.88;;
4428;SDS011;2227;47.810;8.810;2023-03-22T17:57:55;1007.88;;;932.15;;
4428;SDS011;2227;47.810;8.810;2023-03-22T18:00:21;1000.40;;;924.33;;
4428;SDS011;2227;47.810;8.810;2023-03-22T18:02:47;1002.80;;;926.73;;
4428;SDS011;2227;47.810;8.810;2023-03-22T18:05:14;1002.28;;;926.13;;
4428;SDS011;2227;47.810;8.810;2023-03-22T18:07:42;999.15;;;922.90;;
4428;SDS011;2227;47.810;8.810;2023-03-22T18:10:09;999.70;;;923.70;;
4428;SDS011;2227;47.810;8.810;2023-03-22T18:12:38;1001.17;;;925.08;;
4428;SDS011;2227;47.810;8.810;2023-03-22T18:15:06;1001.80;;;926.20;;
4428;SDS011;2227;47.810;8.810;2023-03-22T18:17:36;1004.17;;;927.70;;
4428;SDS011;2227;47.810;8.810;2023-03-22T18:20:02;995.97;;;920.38;;
4428;SDS011;2227;47.810;8.810;2023-03-22T18:22:29;999.67;;;924.17;;
4428;SDS011;2227;47.810;8.810;2023-03-22T18:24:55;993.28;;;917.58;;
4428;SDS011;2227;47.810;8.810;2023-03-22T18:27:21;1001.53;;;925.65;;
4428;SDS011;2227;47.810;8.810;2023-03-22T18:29:47;984.97;;;910.40;;
4428;SDS011;2227;47.810;8.810;2023-03-22T18:32:12;988.00;;;913.20;;
4428;SDS011;2227;47.810;8.810;2023-03-22T18:34:39;990.10;;;912.33;;
4428;SDS011;2227;47.810;8.810;2023-03-22T18:37:05;995.45;;;916.22;;
4428;SDS011;2227;47.810;8.810;2023-03-22T18:39:33;981.13;;;905.77;;
4428;SDS011;2227;47.810;8.810;2023-03-22T18:42:00;979.40;;;904.15;;
4428;SDS011;2227;47.810;8.810;2023-03-22T18:44:26;982.22;;;906.85;;
4428;SDS011;2227;47.810;8.810;2023-03-22T18:46:52;980.33;;;905.07;;
4428;SDS011;2227;47.810;8.810;2023-03-22T18:49:18;985.10;;;909.50;;
4428;SDS011;2227;47.810;8.810;2023-03-22T18:51:44;981.63;;;905.33;;
4428;SDS011;2227;47.810;8.810;2023-03-22T18:54:11;973.45;;;897.40;;
4428;SDS011;2227;47.810;8.810;2023-03-22T18:56:37;975.20;;;899.80;;
4428;SDS011;2227;47.810;8.810;2023-03-22T18:59:03;979.15;;;903.90;;
4428;SDS011;2227;47.810;8.810;2023-03-22T19:01:29;970.77;;;895.77;;
4428;SDS011;2227;47.810;8.810;2023-03-22T19:03:54;966.33;;;891.70;;
4428;SDS011;2227;47.810;8.810;2023-03-22T19:06:20;970.08;;;894.75;;
4428;SDS011;2227;47.810;8.810;2023-03-22T19:08:47;968.63;;;893.67;;
4428;SDS011;2227;47.810;8.810;2023-03-22T19:11:13;972.92;;;898.13;;
4428;SDS011;2227;47.810;8.810;2023-03-22T19:13:41;959.20;;;884.20;;
4428;SDS011;2227;47.810;8.810;2023-03-22T19:16:08;962.10;;;886.90;;
4428;SDS011;2227;47.810;8.810;2023-03-22T19:18:35;953.65;;;879.13;;
4428;SDS011;2227;47.810;8.810;2023-03-22T19:21:02;954.27;;;879.73;;
4428;SDS011;2227;47.810;8.810;2023-03-22T19:23:28;953.10;;;878.75;;
4428;SDS011;2227;47.810;8.810;2023-03-22T19:25:54;951.58;;;877.10;;
4428;SDS011;2227;47.810;8.810;2023-03-22T19:28:20;952.47;;;877.53;;
4428;SDS011;2227;47.810;8.810;2023-03-22T19:30:47;947.05;;;871.97;;
4428;SDS011;2227;47.810;8.810;2023-03-22T19:33:14;948.00;;;873.40;;
4428;SDS011;2227;47.810;8.810;2023-03-22T19:35:46;943.50;;;868.50;;
4428;SDS011;2227;47.810;8.810;2023-03-22T19:38:15;939.85;;;864.92;;
4428;SDS011;2227;47.810;8.810;2023-03-22T19:40:41;943.65;;;868.13;;
4428;SDS011;2227;47.810;8.810;2023-03-22T19:43:07;938.90;;;864.17;;
4428;SDS011;2227;47.810;8.810;2023-03-22T19:45:38;942.17;;;867.27;;
4428;SDS011;2227;47.810;8.810;2023-03-22T19:48:08;937.95;;;863.13;;
4428;SDS011;2227;47.810;8.810;2023-03-22T19:50:35;940.55;;;865.05;;
4428;SDS011;2227;47.810;8.810;2023-03-22T19:53:01;932.88;;;858.25;;
4428;SDS011;2227;47.810;8.810;2023-03-22T19:55:27;942.13;;;867.20;;
4428;SDS011;2227;47.810;8.810;2023-03-22T19:57:54;947.53;;;872.17;;
4428;SDS011;2227;47.810;8.810;2023-03-22T20:00:23;941.60;;;866.80;;
4428;SDS011;2227;47.810;8.810;2023-03-22T20:02:52;942.10;;;867.03;;
4428;SDS011;2227;47.810;8.810;2023-03-22T20:05:18;937.13;;;861.63;;
4428;SDS011;2227;47.810;8.810;2023-03-22T20:07:44;936.45;;;861.35;;
4428;SDS011;2227;47.810;8.810;2023-03-22T20:10:10;932.10;;;856.83;;
4428;SDS011;2227;47.810;8.810;2023-03-22T20:12:35;930.03;;;855.17;;
4428;SDS011;2227;47.810;8.810;2023-03-22T20:15:01;924.73;;;849.80;;
4428;SDS011;2227;47.810;8.810;2023-03-22T20:17:27;928.47;;;853.60;;
4428;SDS011;2227;47.810;8.810;2023-03-22T20:19:53;934.10;;;858.92;;
4428;SDS011;2227;47.810;8.810;2023-03-22T20:22:19;929.65;;;854.65;;
4428;SDS011;2227;47.810;8.810;2023-03-22T20:24:46;928.17;;;852.97;;
4428;SDS011;2227;47.810;8.810;2023-03-22T20:27:12;927.37;;;851.97;;
4428;SDS011;2227;47.810;8.810;2023-03-22T20:29:37;926.77;;;851.40;;
4428;SDS011;2227;47.810;8.810;2023-03-22T20:32:03;933.43;;;858.20;;